createdAt,value
2022-10-22T00:04:48.370Z,100851.69
2022-10-22T00:09:53.071Z,100858.69
2022-10-22T00:14:56.662Z,100873.66
2022-10-22T00:19:59.665Z,100870.00
2022-10-22T00:25:04.183Z,100880.56
2022-10-22T00:30:10.284Z,100875.91
2022-10-22T00:35:13.414Z,100890.81
2022-10-22T00:40:17.847Z,100892.47
2022-10-22T00:45:24.459Z,100883.56
2022-10-22T00:50:32.967Z,100880.81
2022-10-22T00:55:38.526Z,100878.94
2022-10-22T01:00:41.837Z,100868.16
2022-10-22T01:05:53.426Z,100862.75
2022-10-22T01:11:12.532Z,100886.50
2022-10-22T01:16:23.300Z,100889.06
2022-10-22T01:21:34.210Z,100887.06
2022-10-22T01:26:50.940Z,100885.16
2022-10-22T01:32:01.396Z,100886.94
2022-10-22T01:37:05.224Z,100882.38
2022-10-22T01:42:08.439Z,100881.53
2022-10-22T01:47:19.937Z,100883.22
2022-10-22T01:52:33.849Z,100882.31
2022-10-22T01:57:45.421Z,100896.44
2022-10-22T02:02:57.844Z,100886.69
2022-10-22T02:08:04.103Z,100886.59
2022-10-22T02:13:11.111Z,100882.22
2022-10-22T02:18:17.695Z,100871.75
2022-10-22T02:23:22.405Z,100873.41
2022-10-22T02:28:30.632Z,100870.81
2022-10-22T02:33:41.778Z,100870.81
2022-10-22T02:38:46.369Z,100878.78
2022-10-22T02:43:52.380Z,100870.75
2022-10-22T02:48:59.692Z,100881.47
2022-10-22T02:54:03.003Z,100870.81
2022-10-22T02:59:06.209Z,100869.84
2022-10-22T03:04:12.264Z,100858.16
2022-10-22T03:09:15.268Z,100895.44
2022-10-22T03:14:18.381Z,100886.47
2022-10-22T03:19:22.784Z,100898.84
2022-10-22T03:24:32.218Z,100892.59
2022-10-22T03:29:38.784Z,100892.66
2022-10-22T03:34:43.429Z,100894.13
2022-10-22T03:39:47.047Z,100918.91
2022-10-22T03:44:50.305Z,100913.59
2022-10-22T03:49:54.948Z,100904.56
2022-10-22T03:54:57.939Z,100919.66
2022-10-22T04:00:01.077Z,100916.00
2022-10-22T04:05:06.010Z,100924.84
2022-10-22T04:10:09.915Z,100928.34
2022-10-22T04:15:12.956Z,100921.25
2022-10-22T04:20:17.358Z,100924.69
2022-10-22T04:25:20.373Z,100926.41
2022-10-22T04:30:23.445Z,100938.69
2022-10-22T04:35:27.899Z,100935.06
2022-10-22T04:40:30.934Z,100935.06
2022-10-22T04:45:34.471Z,100941.06
2022-10-22T04:50:39.442Z,100941.00
2022-10-22T04:55:45.867Z,100950.72
2022-10-22T05:00:49.212Z,100949.75
2022-10-22T05:05:54.290Z,100961.25
2022-10-22T05:11:02.543Z,100950.66
2022-10-22T05:16:06.193Z,100961.25
2022-10-22T05:21:12.772Z,100950.63
2022-10-22T05:26:17.998Z,100962.81
2022-10-22T05:31:29.023Z,100943.19
2022-10-22T05:36:33.541Z,100964.56
2022-10-22T05:41:37.353Z,100962.75
2022-10-22T05:46:41.099Z,100976.19
2022-10-22T05:51:45.629Z,100972.56
2022-10-22T05:56:49.238Z,100981.69
2022-10-22T06:01:52.861Z,100993.03
2022-10-22T06:06:57.614Z,100991.06
2022-10-22T06:12:01.334Z,100997.22
2022-10-22T06:17:04.643Z,100998.88
2022-10-22T06:22:09.615Z,101005.91
2022-10-22T06:27:12.812Z,101016.47
2022-10-22T06:32:15.851Z,101023.44
2022-10-22T06:37:20.327Z,101036.56
2022-10-22T06:42:23.449Z,101033.94
2022-10-22T06:47:26.496Z,101042.13
2022-10-22T06:52:30.926Z,101058.22
2022-10-22T06:57:34.006Z,101067.44
2022-10-22T07:02:37.140Z,101063.31
2022-10-22T07:07:41.712Z,101068.88
2022-10-22T07:12:45.491Z,101081.41
2022-10-22T07:17:48.698Z,101073.25
2022-10-22T07:22:53.519Z,101097.25
2022-10-22T07:27:57.161Z,101098.16
2022-10-22T07:33:02.198Z,101112.53
2022-10-22T07:38:07.466Z,101107.25
2022-10-22T07:43:10.952Z,101110.81
2022-10-22T07:48:14.528Z,101112.38
2022-10-22T07:53:25.734Z,101135.75
2022-10-22T07:58:29.044Z,101146.50
2022-10-22T08:03:32.835Z,101150.22
2022-10-22T08:08:37.497Z,101152.13
2022-10-22T08:13:45.338Z,101164.19
2022-10-22T08:18:48.958Z,101161.00
2022-10-22T08:23:54.761Z,101174.56
2022-10-22T08:29:05.652Z,101182.19
2022-10-22T08:34:09.628Z,101187.97
2022-10-22T08:39:14.493Z,101184.94
2022-10-22T08:44:39.662Z,101217.91
2022-10-22T08:49:47.200Z,101203.50
2022-10-22T08:54:54.604Z,101230.19
2022-10-22T09:00:06.212Z,101238.16
2022-10-22T09:05:29.770Z,101252.53
2022-10-22T09:10:42.028Z,101253.56
2022-10-22T09:15:53.082Z,101256.09
2022-10-22T09:21:00.931Z,101264.22
2022-10-22T09:26:13.541Z,101255.38
2022-10-22T09:31:17.939Z,101268.91
2022-10-22T09:36:24.460Z,101264.44
2022-10-22T09:41:31.000Z,101276.41
2022-10-22T09:46:44.088Z,101267.69
2022-10-22T09:51:52.900Z,101285.00
2022-10-22T09:56:59.727Z,101288.28
2022-10-22T10:02:19.611Z,101302.50
2022-10-22T10:07:26.877Z,101301.94
2022-10-22T10:12:41.933Z,101311.84
2022-10-22T10:17:52.074Z,101317.59
2022-10-22T10:23:04.698Z,101301.31
2022-10-22T10:28:30.757Z,101326.13
2022-10-22T10:33:41.854Z,101325.31
2022-10-22T10:38:57.436Z,101331.84
2022-10-22T10:44:17.415Z,101342.84
2022-10-22T10:49:24.413Z,101345.56
2022-10-22T10:59:59.807Z,101364.09
2022-10-22T11:05:22.470Z,101342.53
2022-10-22T11:10:31.773Z,101365.44
2022-10-22T11:15:40.671Z,101351.22
2022-10-22T11:20:53.231Z,101350.09
2022-10-22T11:25:56.414Z,101363.66
2022-10-22T11:31:07.950Z,101363.94
2022-10-22T11:36:14.216Z,101360.53
2022-10-22T11:41:19.266Z,101358.88
2022-10-22T11:46:41.943Z,101366.00
2022-10-22T11:51:47.198Z,101354.53
2022-10-22T11:56:54.190Z,101357.38
2022-10-22T12:01:58.929Z,101370.91
2022-10-22T12:07:03.782Z,101367.50
2022-10-22T12:12:16.038Z,101366.84
2022-10-22T12:17:22.959Z,101383.38
2022-10-22T12:22:30.527Z,101380.00
2022-10-22T12:27:37.622Z,101379.19
2022-10-22T12:32:42.473Z,101379.25
2022-10-22T12:38:06.424Z,101369.50
2022-10-22T12:43:15.355Z,101378.25
2022-10-22T12:48:23.587Z,101380.59
2022-10-22T12:53:32.224Z,101360.19
2022-10-22T12:58:43.013Z,101372.78
2022-10-22T13:03:50.775Z,101366.56
2022-10-22T13:09:03.665Z,101351.69
2022-10-22T13:14:16.892Z,101364.28
2022-10-22T13:19:51.197Z,101363.38
2022-10-22T13:25:24.351Z,101371.34
2022-10-22T13:30:30.574Z,101372.25
2022-10-22T13:35:40.605Z,101373.06
2022-10-22T13:40:43.750Z,101367.81
2022-10-22T13:45:49.053Z,101374.06
2022-10-22T13:50:54.753Z,101371.41
2022-10-22T13:55:58.374Z,101374.97
2022-10-22T14:01:02.983Z,101366.09
2022-10-22T14:06:13.100Z,101381.03
2022-10-22T14:11:16.148Z,101393.44
2022-10-22T14:16:22.119Z,101394.28
2022-10-22T14:21:26.637Z,101393.22
2022-10-22T14:26:33.180Z,101395.25
2022-10-22T14:31:36.530Z,101401.47
2022-10-22T14:36:43.851Z,101397.94
2022-10-22T14:41:47.969Z,101402.50
2022-10-22T14:46:54.366Z,101399.94
2022-10-22T14:51:59.005Z,101395.59
2022-10-22T14:57:02.586Z,101393.91
2022-10-22T15:02:05.833Z,101399.16
2022-10-22T15:07:10.273Z,101403.63
2022-10-22T15:12:13.630Z,101399.13
2022-10-22T15:17:17.011Z,101407.97
2022-10-22T15:22:21.536Z,101407.06
2022-10-22T15:27:25.285Z,101407.91
2022-10-22T15:32:29.645Z,101419.41
2022-10-22T15:37:34.063Z,101428.16
2022-10-22T15:42:37.176Z,101421.88
2022-10-22T15:47:40.502Z,101413.75
2022-10-22T15:52:45.178Z,101420.69
2022-10-22T15:57:54.773Z,101406.25
2022-10-22T16:02:57.808Z,101423.03
2022-10-22T16:08:02.213Z,101421.03
2022-10-22T16:13:05.311Z,101406.44
2022-10-22T16:18:08.542Z,101419.56
2022-10-22T16:23:14.041Z,101427.41
2022-10-22T16:28:17.398Z,101424.50
2022-10-22T16:33:20.839Z,101433.03
2022-10-22T16:38:25.372Z,101431.69
2022-10-22T16:43:30.185Z,101422.47
2022-10-22T16:48:33.716Z,101425.81
2022-10-22T16:53:38.397Z,101429.88
2022-10-22T16:58:46.499Z,101434.78
2022-10-22T17:03:49.677Z,101431.78
2022-10-22T17:08:54.480Z,101451.75
2022-10-22T17:13:58.050Z,101442.41
2022-10-22T17:19:03.719Z,101450.91
2022-10-22T17:24:10.208Z,101463.91
2022-10-22T17:29:13.904Z,101463.72
2022-10-22T17:34:19.029Z,101442.28
2022-10-22T17:39:23.576Z,101453.47
2022-10-22T17:44:27.307Z,101460.34
2022-10-22T17:49:30.436Z,101467.97
2022-10-22T17:54:35.753Z,101464.16
2022-10-22T17:59:39.183Z,101469.19
2022-10-22T18:04:42.375Z,101464.53
2022-10-22T18:09:47.315Z,101473.13
2022-10-22T18:14:50.611Z,101476.28
2022-10-22T18:19:53.677Z,101481.16
2022-10-22T18:24:58.850Z,101489.91
2022-10-22T18:30:01.773Z,101478.97
2022-10-22T18:35:08.307Z,101487.72
2022-10-22T18:40:14.698Z,101485.84
2022-10-22T18:45:18.454Z,101472.22
2022-10-22T18:50:22.496Z,101479.31
2022-10-22T18:55:28.097Z,101468.44
2022-10-22T19:00:31.904Z,101473.56
2022-10-22T19:05:36.418Z,101472.91
2022-10-22T19:10:45.026Z,101458.72
2022-10-22T19:15:49.777Z,101435.31
2022-10-22T19:20:59.241Z,101464.69
2022-10-22T19:26:11.357Z,101466.41
2022-10-22T19:31:19.119Z,101458.19
2022-10-22T19:36:28.259Z,101468.75
2022-10-22T19:41:33.797Z,101450.63
2022-10-22T19:46:37.056Z,101467.50
2022-10-22T19:51:41.677Z,101458.31
2022-10-22T19:56:50.407Z,101466.25
2022-10-22T20:01:54.150Z,101467.00
2022-10-22T20:06:57.537Z,101470.41
2022-10-22T20:12:02.060Z,101477.38
2022-10-22T20:17:05.340Z,101475.47
2022-10-22T20:22:08.469Z,101464.81
2022-10-22T20:27:14.883Z,101465.72
2022-10-22T20:32:17.908Z,101483.34
2022-10-22T20:37:21.008Z,101470.97
2022-10-22T20:42:25.646Z,101477.75
2022-10-22T20:47:44.386Z,101460.78
2022-10-22T20:52:55.643Z,101476.91
2022-10-22T20:58:00.156Z,101480.50
2022-10-22T21:03:03.414Z,101464.47
2022-10-22T21:08:07.110Z,101492.81
2022-10-22T21:13:11.557Z,101483.91
2022-10-22T21:18:14.597Z,101481.28
2022-10-22T21:23:17.872Z,101487.50
2022-10-22T21:28:22.490Z,101485.50
2022-10-22T21:33:25.554Z,101497.94
2022-10-22T21:38:28.880Z,101484.59
2022-10-22T21:43:33.488Z,101474.66
2022-10-22T21:48:36.983Z,101476.63
2022-10-22T21:53:40.707Z,101482.69
2022-10-22T21:58:45.496Z,101487.16
2022-10-22T22:03:50.404Z,101487.16
2022-10-22T22:08:55.149Z,101471.13
2022-10-22T22:14:05.392Z,101475.66
2022-10-22T22:19:13.432Z,101439.19
2022-10-22T22:24:16.564Z,101430.38
2022-10-22T22:29:21.061Z,101460.88
2022-10-22T22:34:24.227Z,101445.72
2022-10-22T22:39:28.637Z,101448.38
2022-10-22T22:44:36.181Z,101444.94
2022-10-22T22:49:39.534Z,101395.72
2022-10-22T22:54:42.679Z,101408.53
2022-10-22T22:59:52.313Z,101442.63
2022-10-22T23:04:55.462Z,101445.91
2022-10-22T23:09:58.618Z,101442.41
2022-10-22T23:15:03.322Z,101437.91
2022-10-22T23:20:07.734Z,101433.41
2022-10-22T23:25:11.336Z,101425.47
2022-10-22T23:30:16.184Z,101419.03
2022-10-22T23:35:19.553Z,101398.72
2022-10-22T23:40:22.545Z,101390.53
2022-10-22T23:45:27.089Z,101398.34
2022-10-22T23:50:30.183Z,101400.31
2022-10-22T23:55:33.284Z,101398.50
